sensor_id;sensor_type;location;lat;lon;timestamp;temperature;humidity
41427;DHT22;27171;51.812;19.514;2023-03-14T00:02:28;9.70;99.90
41427;DHT22;27171;51.812;19.514;2023-03-14T00:05:29;9.70;99.90
41427;DHT22;27171;51.812;19.514;2023-03-14T00:08:31;9.70;99.90
41427;DHT22;27171;51.812;19.514;2023-03-14T00:11:32;9.70;99.90
41427;DHT22;27171;51.812;19.514;2023-03-14T00:14:33;9.70;99.90
41427;DHT22;27171;51.812;19.514;2023-03-14T00:17:35;9.70;99.90
41427;DHT22;27171;51.812;19.514;2023-03-14T00:20:36;9.70;99.90
41427;DHT22;27171;51.812;19.514;2023-03-14T00:23:39;9.70;99.90
41427;DHT22;27171;51.812;19.514;2023-03-14T00:26:40;9.70;99.90
41427;DHT22;27171;51.812;19.514;2023-03-14T00:29:42;9.70;99.90
41427;DHT22;27171;51.812;19.514;2023-03-14T00:32:44;9.70;99.90
41427;DHT22;27171;51.812;19.514;2023-03-14T00:35:59;9.70;99.90
41427;DHT22;27171;51.812;19.514;2023-03-14T00:39:00;9.80;99.90
41427;DHT22;27171;51.812;19.514;2023-03-14T00:42:01;9.70;99.90
41427;DHT22;27171;51.812;19.514;2023-03-14T00:45:03;9.70;99.90
41427;DHT22;27171;51.812;19.514;2023-03-14T00:48:05;9.70;99.90
41427;DHT22;27171;51.812;19.514;2023-03-14T00:51:07;9.70;99.90
41427;DHT22;27171;51.812;19.514;2023-03-14T00:54:09;9.70;99.90
41427;DHT22;27171;51.812;19.514;2023-03-14T00:57:10;9.70;99.90
41427;DHT22;27171;51.812;19.514;2023-03-14T01:00:12;9.70;99.90
41427;DHT22;27171;51.812;19.514;2023-03-14T01:03:14;9.70;99.90
41427;DHT22;27171;51.812;19.514;2023-03-14T01:06:18;9.70;99.90
41427;DHT22;27171;51.812;19.514;2023-03-14T01:09:19;9.70;99.90
41427;DHT22;27171;51.812;19.514;2023-03-14T01:12:22;9.70;99.90
41427;DHT22;27171;51.812;19.514;2023-03-14T01:15:23;9.70;99.90
41427;DHT22;27171;51.812;19.514;2023-03-14T01:18:25;9.60;99.90
41427;DHT22;27171;51.812;19.514;2023-03-14T01:21:28;9.60;99.90
41427;DHT22;27171;51.812;19.514;2023-03-14T01:24:30;9.60;99.90
41427;DHT22;27171;51.812;19.514;2023-03-14T01:27:31;9.60;99.90
41427;DHT22;27171;51.812;19.514;2023-03-14T01:30:32;9.60;99.90
41427;DHT22;27171;51.812;19.514;2023-03-14T01:33:34;9.70;99.90
41427;DHT22;27171;51.812;19.514;2023-03-14T01:36:35;9.60;99.90
41427;DHT22;27171;51.812;19.514;2023-03-14T01:39:36;9.70;99.90
41427;DHT22;27171;51.812;19.514;2023-03-14T01:42:37;9.70;99.90
41427;DHT22;27171;51.812;19.514;2023-03-14T01:52:36;9.70;99.90
41427;DHT22;27171;51.812;19.514;2023-03-14T01:55:38;9.70;99.90
41427;DHT22;27171;51.812;19.514;2023-03-14T01:58:41;9.70;99.90
41427;DHT22;27171;51.812;19.514;2023-03-14T02:01:45;9.60;99.90
41427;DHT22;27171;51.812;19.514;2023-03-14T02:04:47;9.70;99.90
41427;DHT22;27171;51.812;19.514;2023-03-14T02:07:54;9.60;99.90
41427;DHT22;27171;51.812;19.514;2023-03-14T02:11:01;9.60;99.90
41427;DHT22;27171;51.812;19.514;2023-03-14T02:14:30;9.60;99.90
41427;DHT22;27171;51.812;19.514;2023-03-14T02:17:46;9.60;99.90
41427;DHT22;27171;51.812;19.514;2023-03-14T02:24:23;9.60;99.90
41427;DHT22;27171;51.812;19.514;2023-03-14T02:27:30;9.60;99.90
41427;DHT22;27171;51.812;19.514;2023-03-14T02:30:32;9.50;99.90
41427;DHT22;27171;51.812;19.514;2023-03-14T02:33:35;9.50;99.90
41427;DHT22;27171;51.812;19.514;2023-03-14T02:36:38;9.50;99.90
41427;DHT22;27171;51.812;19.514;2023-03-14T02:39:43;9.40;99.90
41427;DHT22;27171;51.812;19.514;2023-03-14T02:42:45;9.40;99.90
41427;DHT22;27171;51.812;19.514;2023-03-14T02:45:48;9.30;99.90
41427;DHT22;27171;51.812;19.514;2023-03-14T02:49:00;9.20;99.90
41427;DHT22;27171;51.812;19.514;2023-03-14T02:52:02;9.10;99.90
41427;DHT22;27171;51.812;19.514;2023-03-14T02:55:05;9.00;99.90
41427;DHT22;27171;51.812;19.514;2023-03-14T02:58:08;8.80;99.90
41427;DHT22;27171;51.812;19.514;2023-03-14T03:01:09;8.80;99.90
41427;DHT22;27171;51.812;19.514;2023-03-14T03:04:12;8.70;99.90
41427;DHT22;27171;51.812;19.514;2023-03-14T03:07:13;8.60;99.90
41427;DHT22;27171;51.812;19.514;2023-03-14T03:10:15;8.50;99.90
41427;DHT22;27171;51.812;19.514;2023-03-14T03:13:17;8.40;99.90
41427;DHT22;27171;51.812;19.514;2023-03-14T03:16:21;8.30;99.90
41427;DHT22;27171;51.812;19.514;2023-03-14T03:19:22;8.20;99.90
41427;DHT22;27171;51.812;19.514;2023-03-14T03:22:23;8.20;99.90
41427;DHT22;27171;51.812;19.514;2023-03-14T03:25:24;8.10;99.90
41427;DHT22;27171;51.812;19.514;2023-03-14T03:28:26;8.00;99.90
41427;DHT22;27171;51.812;19.514;2023-03-14T03:31:29;7.90;99.90
41427;DHT22;27171;51.812;19.514;2023-03-14T03:34:30;7.80;99.90
41427;DHT22;27171;51.812;19.514;2023-03-14T03:37:32;7.80;99.90
41427;DHT22;27171;51.812;19.514;2023-03-14T03:40:34;7.70;99.90
41427;DHT22;27171;51.812;19.514;2023-03-14T03:43:35;7.70;99.90
41427;DHT22;27171;51.812;19.514;2023-03-14T03:46:39;7.60;99.90
41427;DHT22;27171;51.812;19.514;2023-03-14T03:49:40;7.60;99.90
41427;DHT22;27171;51.812;19.514;2023-03-14T03:52:44;7.60;99.90
41427;DHT22;27171;51.812;19.514;2023-03-14T03:55:45;7.60;99.90
41427;DHT22;27171;51.812;19.514;2023-03-14T03:58:46;7.60;99.90
41427;DHT22;27171;51.812;19.514;2023-03-14T04:01:47;7.60;99.90
41427;DHT22;27171;51.812;19.514;2023-03-14T04:04:48;7.60;99.90
41427;DHT22;27171;51.812;19.514;2023-03-14T04:07:49;7.60;99.90
41427;DHT22;27171;51.812;19.514;2023-03-14T04:10:59;7.60;99.90
41427;DHT22;27171;51.812;19.514;2023-03-14T04:14:15;7.60;99.90
41427;DHT22;27171;51.812;19.514;2023-03-14T04:17:16;7.60;99.90
41427;DHT22;27171;51.812;19.514;2023-03-14T04:20:17;7.60;99.90
41427;DHT22;27171;51.812;19.514;2023-03-14T04:23:18;7.50;99.90
41427;DHT22;27171;51.812;19.514;2023-03-14T04:26:22;7.50;99.90
41427;DHT22;27171;51.812;19.514;2023-03-14T04:29:23;7.50;99.90
41427;DHT22;27171;51.812;19.514;2023-03-14T04:32:25;7.50;99.90
41427;DHT22;27171;51.812;19.514;2023-03-14T04:35:26;7.50;99.90
41427;DHT22;27171;51.812;19.514;2023-03-14T04:38:34;7.50;99.90
41427;DHT22;27171;51.812;19.514;2023-03-14T04:41:35;7.50;99.90
41427;DHT22;27171;51.812;19.514;2023-03-14T04:44:37;7.50;99.90
41427;DHT22;27171;51.812;19.514;2023-03-14T04:47:39;7.50;99.90
41427;DHT22;27171;51.812;19.514;2023-03-14T04:50:42;7.50;99.90
41427;DHT22;27171;51.812;19.514;2023-03-14T04:53:43;7.50;99.90
41427;DHT22;27171;51.812;19.514;2023-03-14T04:56:47;7.50;99.90
41427;DHT22;27171;51.812;19.514;2023-03-14T04:59:49;7.60;99.90
41427;DHT22;27171;51.812;19.514;2023-03-14T05:03:10;7.60;99.90
41427;DHT22;27171;51.812;19.514;2023-03-14T05:06:30;7.60;99.90
41427;DHT22;27171;51.812;19.514;2023-03-14T05:09:45;7.70;99.90
41427;DHT22;27171;51.812;19.514;2023-03-14T05:13:00;7.70;99.90
41427;DHT22;27171;51.812;19.514;2023-03-14T05:16:22;7.70;99.90
41427;DHT22;27171;51.812;19.514;2023-03-14T05:19:37;7.70;99.90
41427;DHT22;27171;51.812;19.514;2023-03-14T05:22:58;7.70;99.90
41427;DHT22;27171;51.812;19.514;2023-03-14T05:26:20;7.80;99.90
41427;DHT22;27171;51.812;19.514;2023-03-14T05:29:41;7.80;99.90
41427;DHT22;27171;51.812;19.514;2023-03-14T05:33:05;7.80;99.90
41427;DHT22;27171;51.812;19.514;2023-03-14T05:36:25;7.80;99.90
41427;DHT22;27171;51.812;19.514;2023-03-14T05:39:39;7.80;99.90
41427;DHT22;27171;51.812;19.514;2023-03-14T05:42:53;7.80;99.90
41427;DHT22;27171;51.812;19.514;2023-03-14T05:46:08;7.90;99.90
41427;DHT22;27171;51.812;19.514;2023-03-14T05:49:23;7.90;99.90
41427;DHT22;27171;51.812;19.514;2023-03-14T05:52:38;8.00;99.90
41427;DHT22;27171;51.812;19.514;2023-03-14T05:56:08;8.10;99.90
41427;DHT22;27171;51.812;19.514;2023-03-14T05:59:33;8.20;99.90
41427;DHT22;27171;51.812;19.514;2023-03-14T06:02:40;8.30;99.90
41427;DHT22;27171;51.812;19.514;2023-03-14T06:05:52;8.40;99.90
41427;DHT22;27171;51.812;19.514;2023-03-14T06:08:56;8.60;99.90
41427;DHT22;27171;51.812;19.514;2023-03-14T06:11:57;8.70;99.90
41427;DHT22;27171;51.812;19.514;2023-03-14T06:14:59;8.80;99.90
41427;DHT22;27171;51.812;19.514;2023-03-14T06:18:00;8.90;99.90
41427;DHT22;27171;51.812;19.514;2023-03-14T06:21:02;8.90;99.90
41427;DHT22;27171;51.812;19.514;2023-03-14T06:24:03;9.00;99.90
41427;DHT22;27171;51.812;19.514;2023-03-14T06:27:08;9.00;99.90
41427;DHT22;27171;51.812;19.514;2023-03-14T06:30:09;9.10;99.90
41427;DHT22;27171;51.812;19.514;2023-03-14T06:33:11;9.20;99.90
41427;DHT22;27171;51.812;19.514;2023-03-14T06:36:13;9.20;99.90
41427;DHT22;27171;51.812;19.514;2023-03-14T06:39:18;9.30;99.90
41427;DHT22;27171;51.812;19.514;2023-03-14T06:42:22;9.40;99.90
41427;DHT22;27171;51.812;19.514;2023-03-14T06:45:25;9.40;99.90
41427;DHT22;27171;51.812;19.514;2023-03-14T06:48:27;9.50;99.90
41427;DHT22;27171;51.812;19.514;2023-03-14T06:51:30;9.60;99.90
41427;DHT22;27171;51.812;19.514;2023-03-14T06:54:32;9.80;99.90
41427;DHT22;27171;51.812;19.514;2023-03-14T06:57:33;9.90;99.90
41427;DHT22;27171;51.812;19.514;2023-03-14T07:00:35;10.00;99.90
41427;DHT22;27171;51.812;19.514;2023-03-14T07:03:36;10.10;99.90
41427;DHT22;27171;51.812;19.514;2023-03-14T07:06:39;10.30;99.90
41427;DHT22;27171;51.812;19.514;2023-03-14T07:09:41;10.40;99.90
41427;DHT22;27171;51.812;19.514;2023-03-14T07:12:42;10.50;99.90
41427;DHT22;27171;51.812;19.514;2023-03-14T07:15:44;10.60;99.90
41427;DHT22;27171;51.812;19.514;2023-03-14T07:18:45;10.70;99.90
41427;DHT22;27171;51.812;19.514;2023-03-14T07:21:47;10.80;99.90
41427;DHT22;27171;51.812;19.514;2023-03-14T07:24:51;10.90;99.90
41427;DHT22;27171;51.812;19.514;2023-03-14T07:27:52;11.00;99.90
41427;DHT22;27171;51.812;19.514;2023-03-14T07:30:54;11.00;99.90
41427;DHT22;27171;51.812;19.514;2023-03-14T07:34:02;11.10;99.90
41427;DHT22;27171;51.812;19.514;2023-03-14T07:37:07;11.20;99.90
41427;DHT22;27171;51.812;19.514;2023-03-14T07:40:09;11.30;99.90
41427;DHT22;27171;51.812;19.514;2023-03-14T07:43:11;11.40;99.90
41427;DHT22;27171;51.812;19.514;2023-03-14T07:46:19;11.50;99.90
41427;DHT22;27171;51.812;19.514;2023-03-14T07:49:20;11.70;99.90
41427;DHT22;27171;51.812;19.514;2023-03-14T07:52:22;11.80;99.90
41427;DHT22;27171;51.812;19.514;2023-03-14T07:55:23;12.00;99.90
41427;DHT22;27171;51.812;19.514;2023-03-14T07:58:24;12.00;99.90
41427;DHT22;27171;51.812;19.514;2023-03-14T08:01:25;12.10;99.90
41427;DHT22;27171;51.812;19.514;2023-03-14T08:04:26;12.10;99.90
41427;DHT22;27171;51.812;19.514;2023-03-14T08:07:27;12.10;99.90
41427;DHT22;27171;51.812;19.514;2023-03-14T08:10:28;12.10;99.90
41427;DHT22;27171;51.812;19.514;2023-03-14T08:13:30;12.10;99.90
41427;DHT22;27171;51.812;19.514;2023-03-14T08:16:31;12.10;99.90
41427;DHT22;27171;51.812;19.514;2023-03-14T08:19:32;12.10;99.90
41427;DHT22;27171;51.812;19.514;2023-03-14T08:22:33;12.10;99.90
41427;DHT22;27171;51.812;19.514;2023-03-14T08:25:34;12.20;99.90
41427;DHT22;27171;51.812;19.514;2023-03-14T08:28:35;12.20;99.90
41427;DHT22;27171;51.812;19.514;2023-03-14T08:31:36;12.20;99.90
41427;DHT22;27171;51.812;19.514;2023-03-14T08:34:37;12.30;99.90
41427;DHT22;27171;51.812;19.514;2023-03-14T08:37:39;12.30;99.90
41427;DHT22;27171;51.812;19.514;2023-03-14T08:40:40;12.30;99.90
41427;DHT22;27171;51.812;19.514;2023-03-14T08:43:42;12.40;99.90
41427;DHT22;27171;51.812;19.514;2023-03-14T08:46:43;12.40;99.90
41427;DHT22;27171;51.812;19.514;2023-03-14T08:49:44;12.50;99.90
41427;DHT22;27171;51.812;19.514;2023-03-14T08:52:45;12.50;99.90
41427;DHT22;27171;51.812;19.514;2023-03-14T08:55:46;12.60;99.90
41427;DHT22;27171;51.812;19.514;2023-03-14T08:58:47;12.70;99.90
41427;DHT22;27171;51.812;19.514;2023-03-14T09:01:48;12.70;99.90
41427;DHT22;27171;51.812;19.514;2023-03-14T09:04:50;12.70;99.90
41427;DHT22;27171;51.812;19.514;2023-03-14T09:07:51;12.70;99.90
41427;DHT22;27171;51.812;19.514;2023-03-14T09:10:53;12.70;99.90
41427;DHT22;27171;51.812;19.514;2023-03-14T09:13:54;12.80;99.90
41427;DHT22;27171;51.812;19.514;2023-03-14T09:16:55;12.80;99.90
41427;DHT22;27171;51.812;19.514;2023-03-14T09:19:56;12.90;99.90
41427;DHT22;27171;51.812;19.514;2023-03-14T09:22:57;12.90;99.90
41427;DHT22;27171;51.812;19.514;2023-03-14T09:25:59;13.00;99.90
41427;DHT22;27171;51.812;19.514;2023-03-14T09:29:00;13.10;99.90
41427;DHT22;27171;51.812;19.514;2023-03-14T09:32:01;13.20;99.90
41427;DHT22;27171;51.812;19.514;2023-03-14T09:35:02;13.30;99.90
41427;DHT22;27171;51.812;19.514;2023-03-14T09:38:03;13.30;99.90
41427;DHT22;27171;51.812;19.514;2023-03-14T09:41:25;13.40;99.90
41427;DHT22;27171;51.812;19.514;2023-03-14T09:44:28;13.60;99.90
41427;DHT22;27171;51.812;19.514;2023-03-14T09:47:29;13.70;99.90
41427;DHT22;27171;51.812;19.514;2023-03-14T09:50:37;13.70;99.90
41427;DHT22;27171;51.812;19.514;2023-03-14T09:53:40;13.70;99.90
41427;DHT22;27171;51.812;19.514;2023-03-14T09:56:42;13.70;99.90
41427;DHT22;27171;51.812;19.514;2023-03-14T09:59:45;13.70;99.90
41427;DHT22;27171;51.812;19.514;2023-03-14T10:03:29;13.70;99.90
41427;DHT22;27171;51.812;19.514;2023-03-14T10:06:25;13.70;99.90
41427;DHT22;27171;51.812;19.514;2023-03-14T10:09:27;13.70;99.90
41427;DHT22;27171;51.812;19.514;2023-03-14T10:12:33;13.70;99.90
41427;DHT22;27171;51.812;19.514;2023-03-14T10:15:35;13.70;99.90
41427;DHT22;27171;51.812;19.514;2023-03-14T10:18:37;13.70;99.90
41427;DHT22;27171;51.812;19.514;2023-03-14T10:21:40;13.70;99.90
41427;DHT22;27171;51.812;19.514;2023-03-14T10:24:46;13.60;99.90
41427;DHT22;27171;51.812;19.514;2023-03-14T10:27:47;13.60;99.90
41427;DHT22;27171;51.812;19.514;2023-03-14T10:30:48;13.60;99.90
41427;DHT22;27171;51.812;19.514;2023-03-14T10:34:04;13.60;99.90
41427;DHT22;27171;51.812;19.514;2023-03-14T10:37:18;13.60;99.90
41427;DHT22;27171;51.812;19.514;2023-03-14T10:40:37;13.60;99.90
41427;DHT22;27171;51.812;19.514;2023-03-14T10:43:40;13.60;99.90
41427;DHT22;27171;51.812;19.514;2023-03-14T10:50:31;13.60;99.50
41427;DHT22;27171;51.812;19.514;2023-03-14T10:53:40;13.60;99.90
41427;DHT22;27171;51.812;19.514;2023-03-14T10:56:41;13.60;99.90
41427;DHT22;27171;51.812;19.514;2023-03-14T10:59:43;13.50;99.90
41427;DHT22;27171;51.812;19.514;2023-03-14T11:06:05;13.40;99.90
41427;DHT22;27171;51.812;19.514;2023-03-14T11:36:10;12.30;99.90
41427;DHT22;27171;51.812;19.514;2023-03-14T11:39:17;12.10;99.90
41427;DHT22;27171;51.812;19.514;2023-03-14T11:42:18;12.10;99.90
41427;DHT22;27171;51.812;19.514;2023-03-14T11:45:25;12.00;99.90
41427;DHT22;27171;51.812;19.514;2023-03-14T11:51:46;11.80;99.90
41427;DHT22;27171;51.812;19.514;2023-03-14T11:54:54;11.80;99.90
41427;DHT22;27171;51.812;19.514;2023-03-14T11:58:01;11.70;99.90
41427;DHT22;27171;51.812;19.514;2023-03-14T12:01:09;11.70;99.90
41427;DHT22;27171;51.812;19.514;2023-03-14T12:04:22;11.60;99.90
41427;DHT22;27171;51.812;19.514;2023-03-14T12:11:09;11.50;99.90
41427;DHT22;27171;51.812;19.514;2023-03-14T12:17:39;11.30;99.90
41427;DHT22;27171;51.812;19.514;2023-03-14T12:21:08;11.30;99.90
41427;DHT22;27171;51.812;19.514;2023-03-14T12:24:18;11.30;99.90
41427;DHT22;27171;51.812;19.514;2023-03-14T12:27:44;11.20;99.90
41427;DHT22;27171;51.812;19.514;2023-03-14T12:30:45;11.10;99.90
41427;DHT22;27171;51.812;19.514;2023-03-14T12:33:46;11.00;99.90
41427;DHT22;27171;51.812;19.514;2023-03-14T12:36:50;11.00;99.90
41427;DHT22;27171;51.812;19.514;2023-03-14T12:43:32;10.90;99.90
41427;DHT22;27171;51.812;19.514;2023-03-14T12:46:34;10.90;99.90
41427;DHT22;27171;51.812;19.514;2023-03-14T12:49:36;10.90;99.90
41427;DHT22;27171;51.812;19.514;2023-03-14T12:56:07;10.90;99.90
41427;DHT22;27171;51.812;19.514;2023-03-14T13:02:38;10.80;99.90
41427;DHT22;27171;51.812;19.514;2023-03-14T13:05:57;10.70;99.90
41427;DHT22;27171;51.812;19.514;2023-03-14T13:08:58;10.70;99.90
41427;DHT22;27171;51.812;19.514;2023-03-14T13:12:22;10.70;99.90
41427;DHT22;27171;51.812;19.514;2023-03-14T13:15:38;10.70;99.90
41427;DHT22;27171;51.812;19.514;2023-03-14T13:22:32;10.60;99.90
41427;DHT22;27171;51.812;19.514;2023-03-14T13:25:35;10.50;99.90
41427;DHT22;27171;51.812;19.514;2023-03-14T13:28:38;10.50;99.90
41427;DHT22;27171;51.812;19.514;2023-03-14T13:31:47;10.50;99.90
41427;DHT22;27171;51.812;19.514;2023-03-14T13:34:51;10.40;99.90
41427;DHT22;27171;51.812;19.514;2023-03-14T13:37:56;10.40;99.90
41427;DHT22;27171;51.812;19.514;2023-03-14T13:41:00;10.30;99.90
41427;DHT22;27171;51.812;19.514;2023-03-14T13:44:07;10.30;99.90
41427;DHT22;27171;51.812;19.514;2023-03-14T13:47:17;10.20;99.90
41427;DHT22;27171;51.812;19.514;2023-03-14T13:50:19;10.20;99.90
41427;DHT22;27171;51.812;19.514;2023-03-14T13:53:22;10.20;99.90
41427;DHT22;27171;51.812;19.514;2023-03-14T13:56:26;10.10;99.90
41427;DHT22;27171;51.812;19.514;2023-03-14T13:59:30;10.10;99.90
41427;DHT22;27171;51.812;19.514;2023-03-14T14:02:33;10.10;99.90
41427;DHT22;27171;51.812;19.514;2023-03-14T14:05:37;10.10;99.90
41427;DHT22;27171;51.812;19.514;2023-03-14T14:08:40;10.10;99.90
41427;DHT22;27171;51.812;19.514;2023-03-14T14:14:55;10.10;99.90
41427;DHT22;27171;51.812;19.514;2023-03-14T14:18:04;10.10;99.90
41427;DHT22;27171;51.812;19.514;2023-03-14T14:21:05;10.10;99.90
41427;DHT22;27171;51.812;19.514;2023-03-14T14:24:11;10.10;99.90
41427;DHT22;27171;51.812;19.514;2023-03-14T14:27:17;10.10;99.90
41427;DHT22;27171;51.812;19.514;2023-03-14T14:33:21;10.10;99.90
41427;DHT22;27171;51.812;19.514;2023-03-14T14:36:32;10.20;99.90
41427;DHT22;27171;51.812;19.514;2023-03-14T14:39:39;10.20;99.90
41427;DHT22;27171;51.812;19.514;2023-03-14T14:42:41;10.20;99.90
41427;DHT22;27171;51.812;19.514;2023-03-14T14:45:42;10.20;99.90
41427;DHT22;27171;51.812;19.514;2023-03-14T14:48:44;10.30;99.90
41427;DHT22;27171;51.812;19.514;2023-03-14T14:51:49;10.30;99.90
41427;DHT22;27171;51.812;19.514;2023-03-14T14:54:52;10.30;99.90
41427;DHT22;27171;51.812;19.514;2023-03-14T14:57:55;10.30;99.90
41427;DHT22;27171;51.812;19.514;2023-03-14T15:01:13;10.30;99.90
41427;DHT22;27171;51.812;19.514;2023-03-14T15:04:15;10.20;99.90
41427;DHT22;27171;51.812;19.514;2023-03-14T15:07:16;10.20;99.90
41427;DHT22;27171;51.812;19.514;2023-03-14T15:10:20;10.20;99.90
41427;DHT22;27171;51.812;19.514;2023-03-14T15:13:22;10.20;99.90
41427;DHT22;27171;51.812;19.514;2023-03-14T15:16:28;10.30;99.90
41427;DHT22;27171;51.812;19.514;2023-03-14T15:19:29;10.30;99.90
41427;DHT22;27171;51.812;19.514;2023-03-14T15:22:31;10.30;99.90
41427;DHT22;27171;51.812;19.514;2023-03-14T15:25:32;10.40;99.90
41427;DHT22;27171;51.812;19.514;2023-03-14T15:28:33;10.40;99.90
41427;DHT22;27171;51.812;19.514;2023-03-14T15:31:35;10.50;99.90
41427;DHT22;27171;51.812;19.514;2023-03-14T15:34:36;10.50;99.90
41427;DHT22;27171;51.812;19.514;2023-03-14T15:37:37;10.50;99.90
41427;DHT22;27171;51.812;19.514;2023-03-14T15:40:38;10.40;99.90
41427;DHT22;27171;51.812;19.514;2023-03-14T15:43:40;10.40;99.90
41427;DHT22;27171;51.812;19.514;2023-03-14T15:46:41;10.40;99.90
41427;DHT22;27171;51.812;19.514;2023-03-14T15:49:42;10.40;99.90
41427;DHT22;27171;51.812;19.514;2023-03-14T15:52:43;10.40;99.90
41427;DHT22;27171;51.812;19.514;2023-03-14T15:55:44;10.40;99.90
41427;DHT22;27171;51.812;19.514;2023-03-14T15:58:46;10.40;99.90
41427;DHT22;27171;51.812;19.514;2023-03-14T16:01:47;10.40;99.90
41427;DHT22;27171;51.812;19.514;2023-03-14T16:04:48;10.40;99.90
41427;DHT22;27171;51.812;19.514;2023-03-14T16:07:49;10.40;99.90
41427;DHT22;27171;51.812;19.514;2023-03-14T16:10:50;10.40;99.90
41427;DHT22;27171;51.812;19.514;2023-03-14T16:13:51;10.30;99.90
41427;DHT22;27171;51.812;19.514;2023-03-14T16:16:53;10.30;99.90
41427;DHT22;27171;51.812;19.514;2023-03-14T16:19:54;10.20;99.90
41427;DHT22;27171;51.812;19.514;2023-03-14T16:22:55;10.20;99.90
41427;DHT22;27171;51.812;19.514;2023-03-14T16:25:57;10.20;99.90
41427;DHT22;27171;51.812;19.514;2023-03-14T16:28:59;10.10;99.90
41427;DHT22;27171;51.812;19.514;2023-03-14T16:32:00;10.10;99.90
41427;DHT22;27171;51.812;19.514;2023-03-14T16:35:01;10.10;99.90
41427;DHT22;27171;51.812;19.514;2023-03-14T16:38:02;10.00;99.90
41427;DHT22;27171;51.812;19.514;2023-03-14T16:41:06;10.00;99.90
41427;DHT22;27171;51.812;19.514;2023-03-14T16:44:08;9.90;99.90
41427;DHT22;27171;51.812;19.514;2023-03-14T16:47:09;9.90;99.90
41427;DHT22;27171;51.812;19.514;2023-03-14T16:50:10;9.80;99.90
41427;DHT22;27171;51.812;19.514;2023-03-14T16:53:11;9.80;99.90
41427;DHT22;27171;51.812;19.514;2023-03-14T16:56:13;9.70;99.90
41427;DHT22;27171;51.812;19.514;2023-03-14T16:59:15;9.60;99.90
41427;DHT22;27171;51.812;19.514;2023-03-14T17:02:16;9.50;99.90
41427;DHT22;27171;51.812;19.514;2023-03-14T17:05:17;9.50;99.90
41427;DHT22;27171;51.812;19.514;2023-03-14T17:08:19;9.40;99.90
41427;DHT22;27171;51.812;19.514;2023-03-14T17:11:21;9.30;99.90
41427;DHT22;27171;51.812;19.514;2023-03-14T17:14:22;9.30;99.90
41427;DHT22;27171;51.812;19.514;2023-03-14T17:17:23;9.20;99.90
41427;DHT22;27171;51.812;19.514;2023-03-14T17:20:25;9.20;99.90
41427;DHT22;27171;51.812;19.514;2023-03-14T17:23:27;9.10;99.90
41427;DHT22;27171;51.812;19.514;2023-03-14T17:26:29;9.10;99.90
41427;DHT22;27171;51.812;19.514;2023-03-14T17:29:30;9.10;99.90
41427;DHT22;27171;51.812;19.514;2023-03-14T17:32:31;9.00;99.90
41427;DHT22;27171;51.812;19.514;2023-03-14T17:35:32;9.00;99.90
41427;DHT22;27171;51.812;19.514;2023-03-14T17:38:34;8.90;99.90
41427;DHT22;27171;51.812;19.514;2023-03-14T17:41:36;9.00;99.90
41427;DHT22;27171;51.812;19.514;2023-03-14T17:44:37;8.90;99.90
41427;DHT22;27171;51.812;19.514;2023-03-14T17:47:38;8.90;99.90
41427;DHT22;27171;51.812;19.514;2023-03-14T17:50:39;8.80;99.90
41427;DHT22;27171;51.812;19.514;2023-03-14T17:53:41;8.80;99.90
41427;DHT22;27171;51.812;19.514;2023-03-14T17:56:42;8.80;99.90
41427;DHT22;27171;51.812;19.514;2023-03-14T17:59:43;8.80;99.90
41427;DHT22;27171;51.812;19.514;2023-03-14T18:02:44;8.70;99.90
41427;DHT22;27171;51.812;19.514;2023-03-14T18:05:46;8.70;99.90
41427;DHT22;27171;51.812;19.514;2023-03-14T18:08:47;8.70;99.90
41427;DHT22;27171;51.812;19.514;2023-03-14T18:11:48;8.70;99.90
41427;DHT22;27171;51.812;19.514;2023-03-14T18:14:49;8.70;99.90
41427;DHT22;27171;51.812;19.514;2023-03-14T18:17:50;8.70;99.90
41427;DHT22;27171;51.812;19.514;2023-03-14T18:20:52;8.60;99.90
41427;DHT22;27171;51.812;19.514;2023-03-14T18:23:53;8.60;99.90
41427;DHT22;27171;51.812;19.514;2023-03-14T18:26:54;8.50;99.90
41427;DHT22;27171;51.812;19.514;2023-03-14T18:29:56;8.60;99.90
41427;DHT22;27171;51.812;19.514;2023-03-14T18:32:57;8.50;99.90
41427;DHT22;27171;51.812;19.514;2023-03-14T18:35:58;8.50;99.90
41427;DHT22;27171;51.812;19.514;2023-03-14T18:38:59;8.50;99.90
41427;DHT22;27171;51.812;19.514;2023-03-14T18:42:00;8.40;99.90
41427;DHT22;27171;51.812;19.514;2023-03-14T18:45:01;8.40;99.90
41427;DHT22;27171;51.812;19.514;2023-03-14T18:48:03;8.40;99.90
41427;DHT22;27171;51.812;19.514;2023-03-14T18:51:04;8.30;99.90
41427;DHT22;27171;51.812;19.514;2023-03-14T18:54:06;8.20;99.90
41427;DHT22;27171;51.812;19.514;2023-03-14T18:57:07;8.20;99.90
41427;DHT22;27171;51.812;19.514;2023-03-14T19:00:08;8.20;99.90
41427;DHT22;27171;51.812;19.514;2023-03-14T19:03:10;8.10;99.90
41427;DHT22;27171;51.812;19.514;2023-03-14T19:06:11;8.10;99.90
41427;DHT22;27171;51.812;19.514;2023-03-14T19:09:14;8.10;99.90
41427;DHT22;27171;51.812;19.514;2023-03-14T19:12:16;8.10;99.90
41427;DHT22;27171;51.812;19.514;2023-03-14T19:15:17;8.10;99.90
41427;DHT22;27171;51.812;19.514;2023-03-14T19:18:18;8.10;99.90
41427;DHT22;27171;51.812;19.514;2023-03-14T19:21:28;8.10;99.90
41427;DHT22;27171;51.812;19.514;2023-03-14T19:24:29;8.10;99.90
41427;DHT22;27171;51.812;19.514;2023-03-14T19:27:30;8.10;99.90
41427;DHT22;27171;51.812;19.514;2023-03-14T19:30:31;8.10;99.90
41427;DHT22;27171;51.812;19.514;2023-03-14T19:33:32;8.10;99.90
41427;DHT22;27171;51.812;19.514;2023-03-14T19:36:35;8.20;99.90
41427;DHT22;27171;51.812;19.514;2023-03-14T19:39:37;8.20;99.90
41427;DHT22;27171;51.812;19.514;2023-03-14T19:42:38;8.20;99.90
41427;DHT22;27171;51.812;19.514;2023-03-14T19:45:41;8.30;99.90
41427;DHT22;27171;51.812;19.514;2023-03-14T19:48:42;8.30;99.90
41427;DHT22;27171;51.812;19.514;2023-03-14T19:51:44;8.30;99.90
41427;DHT22;27171;51.812;19.514;2023-03-14T19:54:45;8.30;99.90
41427;DHT22;27171;51.812;19.514;2023-03-14T19:57:46;8.40;99.90
41427;DHT22;27171;51.812;19.514;2023-03-14T20:00:47;8.40;99.90
41427;DHT22;27171;51.812;19.514;2023-03-14T20:03:48;8.50;99.90
41427;DHT22;27171;51.812;19.514;2023-03-14T20:06:50;8.50;99.90
41427;DHT22;27171;51.812;19.514;2023-03-14T20:09:51;8.50;99.90
41427;DHT22;27171;51.812;19.514;2023-03-14T20:12:52;8.60;99.90
41427;DHT22;27171;51.812;19.514;2023-03-14T20:15:53;8.60;99.90
41427;DHT22;27171;51.812;19.514;2023-03-14T20:18:54;8.60;99.90
41427;DHT22;27171;51.812;19.514;2023-03-14T20:21:56;8.70;99.90
41427;DHT22;27171;51.812;19.514;2023-03-14T20:24:57;8.70;99.90
41427;DHT22;27171;51.812;19.514;2023-03-14T20:27:58;8.70;99.90
41427;DHT22;27171;51.812;19.514;2023-03-14T20:30:59;8.70;99.90